createdAt,value
2023-02-14T00:01:39.669Z,5.44
2023-02-14T00:03:19.434Z,5.44
2023-02-14T00:04:59.224Z,5.41
2023-02-14T00:06:38.961Z,5.4
2023-02-14T00:08:18.744Z,5.41
2023-02-14T00:09:58.512Z,5.39
2023-02-14T00:11:38.282Z,5.38
2023-02-14T00:13:18.045Z,5.38
2023-02-14T00:14:57.819Z,5.37
2023-02-14T00:16:37.556Z,5.37
2023-02-14T00:18:17.321Z,5.35
2023-02-14T00:19:57.094Z,5.35
2023-02-14T00:21:36.877Z,5.34
2023-02-14T00:23:16.613Z,5.35
2023-02-14T00:24:56.393Z,5.35
2023-02-14T00:26:36.137Z,5.34
2023-02-14T00:28:15.905Z,5.35
2023-02-14T00:29:55.673Z,5.33
2023-02-14T00:31:35.441Z,5.32
2023-02-14T00:33:15.197Z,5.33
2023-02-14T00:34:54.959Z,5.31
2023-02-14T00:36:34.717Z,5.3
2023-02-14T00:38:14.490Z,5.28
2023-02-14T00:39:54.242Z,5.27
2023-02-14T00:41:34.028Z,5.27
2023-02-14T00:43:13.768Z,5.26
2023-02-14T00:44:53.546Z,5.28
2023-02-14T00:46:33.297Z,5.27
2023-02-14T00:48:13.071Z,5.23
2023-02-14T00:49:52.844Z,5.25
2023-02-14T00:51:32.596Z,5.23
2023-02-14T00:53:12.359Z,5.24
2023-02-14T00:54:52.155Z,5.21
2023-02-14T00:56:31.891Z,5.22
2023-02-14T00:58:11.645Z,5.22
2023-02-14T00:59:51.415Z,5.2
2023-02-14T01:01:31.192Z,5.19
2023-02-14T01:03:10.943Z,5.18
2023-02-14T01:04:50.719Z,5.17
2023-02-14T01:06:30.473Z,5.16
2023-02-14T01:08:10.231Z,5.17
2023-02-14T01:09:50.005Z,5.15
2023-02-14T01:11:29.781Z,5.14
2023-02-14T01:13:09.535Z,5.15
2023-02-14T01:14:49.301Z,5.13
2023-02-14T01:16:29.048Z,5.12
2023-02-14T01:18:08.824Z,5.11
2023-02-14T01:19:48.580Z,5.11
2023-02-14T01:21:28.403Z,5.1
2023-02-14T01:23:08.111Z,5.1
2023-02-14T01:24:47.884Z,5.09
2023-02-14T01:26:27.645Z,5.08
2023-02-14T01:28:07.424Z,5.07
2023-02-14T01:29:47.172Z,5.06
2023-02-14T01:31:26.925Z,5.05
2023-02-14T01:33:06.717Z,5.04
2023-02-14T01:34:46.452Z,5.04
2023-02-14T01:36:26.224Z,5.03
2023-02-14T01:38:05.988Z,5.02
2023-02-14T01:39:45.750Z,5.03
2023-02-14T01:41:25.533Z,5.02
2023-02-14T01:43:05.276Z,5.01
2023-02-14T01:44:45.049Z,5.01
2023-02-14T01:46:24.796Z,4.98
2023-02-14T01:48:04.573Z,4.98
2023-02-14T01:49:44.340Z,4.98
2023-02-14T01:51:24.117Z,4.96
2023-02-14T01:53:03.865Z,4.98
2023-02-14T01:54:43.625Z,4.96
2023-02-14T01:56:23.385Z,4.94
2023-02-14T01:58:03.153Z,4.94
2023-02-14T01:59:42.942Z,4.94
2023-02-14T02:01:22.711Z,4.92
2023-02-14T02:03:02.438Z,4.92
2023-02-14T02:04:42.206Z,4.91
2023-02-14T02:06:21.980Z,4.9
2023-02-14T02:08:01.767Z,4.89
2023-02-14T02:09:41.506Z,4.89
2023-02-14T02:11:21.264Z,4.86
2023-02-14T02:13:01.032Z,4.85
2023-02-14T02:14:40.818Z,4.84
2023-02-14T02:16:20.555Z,4.84
2023-02-14T02:18:00.333Z,4.82
2023-02-14T02:19:40.088Z,4.82
2023-02-14T02:21:19.852Z,4.81
2023-02-14T02:22:59.612Z,4.81
2023-02-14T02:24:39.387Z,4.8
2023-02-14T02:26:19.136Z,4.79
2023-02-14T02:27:58.928Z,4.78
2023-02-14T02:29:38.661Z,4.79
2023-02-14T02:31:18.446Z,4.79
2023-02-14T02:32:58.191Z,4.8
2023-02-14T02:34:37.981Z,4.79
2023-02-14T02:36:17.718Z,4.78
2023-02-14T02:37:57.485Z,4.75
2023-02-14T02:39:37.246Z,4.77
2023-02-14T02:41:17.025Z,4.76
2023-02-14T02:42:56.785Z,4.75
2023-02-14T02:44:36.607Z,4.75
2023-02-14T02:46:16.320Z,4.75
2023-02-14T02:47:56.067Z,4.73
2023-02-14T02:49:35.860Z,4.73
2023-02-14T02:51:15.603Z,4.73
2023-02-14T02:52:55.354Z,4.73
2023-02-14T02:54:35.120Z,4.71
2023-02-14T02:56:14.896Z,4.71
2023-02-14T02:57:54.653Z,4.71
2023-02-14T02:59:34.414Z,4.71
2023-02-14T03:01:14.177Z,4.69
2023-02-14T03:02:53.959Z,4.69
2023-02-14T03:04:33.715Z,4.69
2023-02-14T03:06:13.479Z,4.69
2023-02-14T03:07:53.239Z,4.67
2023-02-14T03:09:33.005Z,4.67
2023-02-14T03:11:12.772Z,4.66
2023-02-14T03:12:52.520Z,4.65
2023-02-14T03:14:32.280Z,4.64
2023-02-14T03:16:12.065Z,4.64
2023-02-14T03:17:51.830Z,4.62
2023-02-14T03:19:31.585Z,4.61
2023-02-14T03:21:11.359Z,4.61
2023-02-14T03:22:51.113Z,4.61
2023-02-14T03:24:30.876Z,4.59
2023-02-14T03:26:10.637Z,4.61
2023-02-14T03:27:50.397Z,4.61
2023-02-14T03:29:30.190Z,4.6
2023-02-14T03:31:09.939Z,4.6
2023-02-14T03:32:49.685Z,4.61
2023-02-14T03:34:29.463Z,4.59
2023-02-14T03:36:09.224Z,4.58
2023-02-14T03:37:48.997Z,4.59
2023-02-14T03:39:28.755Z,4.57
2023-02-14T03:41:08.531Z,4.57
2023-02-14T03:42:48.275Z,4.58
2023-02-14T03:44:28.036Z,4.58
2023-02-14T03:46:07.812Z,4.57
2023-02-14T03:47:47.561Z,4.57
2023-02-14T03:49:27.363Z,4.59
2023-02-14T03:51:07.103Z,4.57
2023-02-14T03:52:46.863Z,4.56
2023-02-14T03:54:26.623Z,4.57
2023-02-14T03:56:06.375Z,4.54
2023-02-14T03:57:46.169Z,4.52
2023-02-14T03:59:25.916Z,4.55
2023-02-14T04:01:05.669Z,4.53
2023-02-14T04:02:45.439Z,4.53
2023-02-14T04:04:25.200Z,4.53
2023-02-14T04:06:04.958Z,4.52
2023-02-14T04:07:44.739Z,4.53
2023-02-14T04:09:24.490Z,4.52
2023-02-14T04:11:04.247Z,4.52
2023-02-14T04:12:44.024Z,4.52
2023-02-14T04:14:23.807Z,4.51
2023-02-14T04:16:03.562Z,4.5
2023-02-14T04:17:43.316Z,4.51
2023-02-14T04:19:23.085Z,4.48
2023-02-14T04:21:02.849Z,4.48
2023-02-14T04:22:42.599Z,4.51
2023-02-14T04:24:22.379Z,4.48
2023-02-14T04:26:02.145Z,4.48
2023-02-14T04:27:41.902Z,4.48
2023-02-14T04:29:21.655Z,4.46
2023-02-14T04:31:01.427Z,4.46
2023-02-14T04:32:41.186Z,4.44
2023-02-14T04:34:20.953Z,4.44
2023-02-14T04:36:00.717Z,4.48
2023-02-14T04:37:40.479Z,4.48
2023-02-14T04:39:20.241Z,4.46
2023-02-14T04:41:00.014Z,4.46
2023-02-14T04:42:39.773Z,4.46
2023-02-14T04:44:19.540Z,4.44
2023-02-14T04:45:59.292Z,4.44
2023-02-14T04:47:39.065Z,4.44
2023-02-14T04:49:18.828Z,4.44
2023-02-14T04:50:58.598Z,4.42
2023-02-14T04:52:38.356Z,4.42
2023-02-14T04:54:18.137Z,4.41
2023-02-14T04:55:57.882Z,4.42
2023-02-14T04:57:37.652Z,4.39
2023-02-14T04:59:17.439Z,4.38
2023-02-14T05:00:57.255Z,4.37
2023-02-14T05:02:36.962Z,4.38
2023-02-14T05:04:16.719Z,4.37
2023-02-14T05:05:56.494Z,4.37
2023-02-14T05:07:36.226Z,4.34
2023-02-14T05:09:15.985Z,4.38
2023-02-14T05:10:55.765Z,4.36
2023-02-14T05:12:35.540Z,4.36
2023-02-14T05:14:15.271Z,4.37
2023-02-14T05:15:55.033Z,4.36
2023-02-14T05:17:34.838Z,4.35
2023-02-14T05:19:14.583Z,4.35
2023-02-14T05:20:54.351Z,4.37
2023-02-14T05:22:34.090Z,4.34
2023-02-14T05:24:13.861Z,4.36
2023-02-14T05:25:53.618Z,4.33
2023-02-14T05:27:33.411Z,4.33
2023-02-14T05:29:13.146Z,4.32
2023-02-14T05:30:52.932Z,4.33
2023-02-14T05:32:32.677Z,4.3
2023-02-14T05:34:12.449Z,4.32
2023-02-14T05:35:52.236Z,4.32
2023-02-14T05:37:31.995Z,4.29
2023-02-14T05:39:11.723Z,4.3
2023-02-14T05:40:51.510Z,4.29
2023-02-14T05:42:31.263Z,4.29
2023-02-14T05:44:11.021Z,4.3
2023-02-14T05:45:50.790Z,4.29
2023-02-14T05:47:30.558Z,4.25
2023-02-14T05:49:10.311Z,4.28
2023-02-14T05:50:50.087Z,4.29
2023-02-14T05:52:29.861Z,4.28
2023-02-14T05:54:09.619Z,4.27
2023-02-14T05:55:49.391Z,4.33
2023-02-14T05:57:29.146Z,4.29
2023-02-14T05:59:08.918Z,4.29
2023-02-14T06:00:48.697Z,4.28
2023-02-14T06:02:28.442Z,4.26
2023-02-14T06:04:08.198Z,4.25
2023-02-14T06:05:47.966Z,4.26
2023-02-14T06:07:27.722Z,4.23
2023-02-14T06:09:07.500Z,4.23
2023-02-14T06:12:27.029Z,4.21
2023-02-14T06:14:06.804Z,4.19
2023-02-14T06:15:46.572Z,4.21
2023-02-14T06:17:26.336Z,4.21
2023-02-14T06:19:06.074Z,4.19
2023-02-14T06:20:45.872Z,4.19
2023-02-14T06:22:25.597Z,4.19
2023-02-14T06:24:05.356Z,4.21
2023-02-14T06:25:45.163Z,4.19
2023-02-14T06:29:04.649Z,4.19
2023-02-14T06:30:44.433Z,4.19
2023-02-14T06:32:24.202Z,4.17
2023-02-14T06:34:03.950Z,4.19
2023-02-14T06:35:43.711Z,4.19
2023-02-14T06:37:23.476Z,4.19
2023-02-14T06:39:03.246Z,4.19
2023-02-14T06:40:43.008Z,4.21
2023-02-14T06:42:22.764Z,4.21
2023-02-14T06:45:42.283Z,4.19
2023-02-14T06:47:22.074Z,4.19
2023-02-14T06:49:01.850Z,4.19
2023-02-14T06:50:41.585Z,4.19
2023-02-14T06:52:21.347Z,4.21
2023-02-14T06:54:01.124Z,4.19
2023-02-14T06:55:40.869Z,4.21
2023-02-14T06:57:20.635Z,4.23
2023-02-14T06:59:00.417Z,4.21
2023-02-14T07:00:40.194Z,4.29
2023-02-14T07:02:19.938Z,4.23
2023-02-14T07:03:59.691Z,4.23
2023-02-14T07:05:39.472Z,4.19
2023-02-14T07:07:19.222Z,4.23
2023-02-14T07:08:58.996Z,4.23
2023-02-14T07:10:38.758Z,4.23
2023-02-14T07:12:18.531Z,4.23
2023-02-14T07:13:58.299Z,4.23
2023-02-14T07:15:38.042Z,4.23
2023-02-14T07:17:17.798Z,4.23
2023-02-14T07:18:57.559Z,4.21
2023-02-14T07:20:37.322Z,4.23
2023-02-14T07:22:17.094Z,4.27
2023-02-14T07:23:56.862Z,4.25
2023-02-14T07:25:36.645Z,4.19
2023-02-14T07:27:16.391Z,4.29
2023-02-14T07:28:56.145Z,4.27
2023-02-14T07:30:35.918Z,4.27
2023-02-14T07:32:15.682Z,4.27
2023-02-14T07:33:55.468Z,4.26
2023-02-14T07:35:35.205Z,4.29
2023-02-14T07:37:14.991Z,4.27
2023-02-14T07:38:54.742Z,4.29
2023-02-14T07:40:34.499Z,4.29
2023-02-14T07:42:14.254Z,4.28
2023-02-14T07:43:54.044Z,4.33
2023-02-14T07:45:33.809Z,4.34
2023-02-14T07:47:13.555Z,4.33
2023-02-14T07:48:53.358Z,4.32
2023-02-14T07:50:33.280Z,4.33
2023-02-14T07:52:12.994Z,4.32
2023-02-14T07:53:52.820Z,4.35
2023-02-14T07:55:32.476Z,4.31
2023-02-14T07:57:12.146Z,4.35
2023-02-14T07:58:52.118Z,4.37
2023-02-14T08:00:31.768Z,4.38
2023-02-14T08:02:11.466Z,4.38
2023-02-14T08:03:51.385Z,4.38
2023-02-14T08:05:31.031Z,4.42
2023-02-14T08:07:10.760Z,4.41
2023-02-14T08:08:50.677Z,4.42
2023-02-14T08:10:30.251Z,4.41
2023-02-14T08:12:10.155Z,4.44
2023-02-14T08:13:49.772Z,4.44
2023-02-14T08:15:29.545Z,4.46
2023-02-14T08:17:09.355Z,4.46
2023-02-14T08:18:49.166Z,4.39
2023-02-14T08:20:28.843Z,4.48
2023-02-14T08:22:08.643Z,4.5
2023-02-14T08:23:48.390Z,4.51
2023-02-14T08:25:28.118Z,4.52
2023-02-14T08:27:07.943Z,4.55
2023-02-14T08:28:47.665Z,4.42
2023-02-14T08:30:27.403Z,4.54
2023-02-14T08:32:07.169Z,4.56
2023-02-14T08:33:47.037Z,4.53
2023-02-14T08:35:26.694Z,4.46
2023-02-14T08:37:06.468Z,4.6
2023-02-14T08:38:46.248Z,4.61
2023-02-14T08:42:05.838Z,4.62
2023-02-14T08:43:45.538Z,4.64
2023-02-14T08:45:25.340Z,4.52
2023-02-14T08:47:05.116Z,4.67
2023-02-14T08:48:44.836Z,4.63
2023-02-14T08:50:24.644Z,4.67
2023-02-14T08:52:04.366Z,4.71
2023-02-14T08:53:44.163Z,4.71
2023-02-14T08:55:23.911Z,4.71
2023-02-14T08:57:03.751Z,4.73
2023-02-14T08:58:43.443Z,4.75
2023-02-14T09:00:23.220Z,4.78
2023-02-14T09:02:02.977Z,4.79
2023-02-14T09:03:42.744Z,4.8
2023-02-14T09:05:22.682Z,4.83
2023-02-14T09:07:02.426Z,4.81
2023-02-14T09:08:42.166Z,4.82
2023-02-14T09:10:21.793Z,4.87
2023-02-14T09:12:01.579Z,4.85
2023-02-14T09:13:41.337Z,4.87
2023-02-14T09:15:21.104Z,4.89
2023-02-14T09:17:00.873Z,4.89
2023-02-14T09:18:40.633Z,4.9
2023-02-14T09:20:20.399Z,4.94
2023-02-14T09:22:00.185Z,4.98
2023-02-14T09:23:39.957Z,4.94
2023-02-14T09:25:19.705Z,4.98
2023-02-14T09:26:59.462Z,4.98
2023-02-14T09:28:39.229Z,5
2023-02-14T09:30:18.991Z,5
2023-02-14T09:31:58.781Z,5.03
2023-02-14T09:33:38.528Z,5.04
2023-02-14T09:35:18.321Z,5.05
2023-02-14T09:36:58.074Z,5.06
2023-02-14T09:38:37.833Z,5.11
2023-02-14T09:40:17.598Z,5.11
2023-02-14T09:41:57.378Z,5.13
2023-02-14T09:43:37.145Z,5.16
2023-02-14T09:45:16.894Z,5.17
2023-02-14T09:46:56.664Z,5.19
2023-02-14T09:48:36.465Z,5.21
2023-02-14T09:50:16.191Z,5.22
2023-02-14T09:51:56.123Z,5.26
2023-02-14T09:53:35.704Z,5.29
2023-02-14T09:55:15.581Z,5.31
2023-02-14T09:56:55.450Z,5.32
2023-02-14T09:58:35.002Z,5.38
2023-02-14T10:00:14.768Z,5.36
2023-02-14T10:01:54.529Z,5.4
2023-02-14T10:03:34.308Z,5.39
2023-02-14T10:05:14.055Z,5.39
2023-02-14T10:06:53.829Z,5.49
2023-02-14T10:08:33.610Z,5.47
2023-02-14T10:10:13.348Z,5.48
2023-02-14T10:11:53.095Z,5.52
2023-02-14T10:13:32.879Z,5.51
2023-02-14T10:15:12.656Z,5.56
2023-02-14T10:16:52.413Z,5.55
2023-02-14T10:18:32.166Z,5.58
2023-02-14T10:20:11.935Z,5.61
2023-02-14T10:21:51.687Z,5.64
2023-02-14T10:23:31.459Z,5.65
2023-02-14T10:25:11.223Z,5.68
2023-02-14T10:26:51.007Z,5.69
2023-02-14T10:31:50.277Z,5.76
2023-02-14T10:33:30.058Z,5.76
2023-02-14T10:35:09.808Z,5.77
2023-02-14T10:36:49.601Z,5.78
2023-02-14T10:38:29.340Z,5.82
2023-02-14T10:40:09.101Z,5.81
2023-02-14T10:41:48.852Z,5.87
2023-02-14T10:43:28.619Z,5.89
2023-02-14T10:45:08.393Z,5.93
2023-02-14T10:46:48.158Z,5.91
2023-02-14T10:48:27.912Z,5.93
2023-02-14T10:50:07.697Z,5.93
2023-02-14T10:51:47.446Z,5.95
2023-02-14T10:55:06.970Z,5.98
2023-02-14T10:56:46.761Z,6
2023-02-14T10:58:26.509Z,5.98
2023-02-14T11:00:06.275Z,6.01
2023-02-14T11:01:46.031Z,6.05
2023-02-14T11:03:25.805Z,6.08
2023-02-14T11:05:05.566Z,6.07
2023-02-14T11:06:45.319Z,6.08
2023-02-14T11:08:25.174Z,6.11
2023-02-14T11:10:04.963Z,6.07
2023-02-14T11:11:44.777Z,6.14
2023-02-14T11:13:24.422Z,6.16
2023-02-14T11:15:04.303Z,6.19
2023-02-14T11:16:44.040Z,6.19
2023-02-14T11:18:23.720Z,6.2
2023-02-14T11:20:03.535Z,6.23
2023-02-14T11:21:43.298Z,6.19
2023-02-14T11:23:22.984Z,6.23
2023-02-14T11:25:02.800Z,6.26
2023-02-14T11:26:42.492Z,6.3
2023-02-14T11:28:22.294Z,6.34
2023-02-14T11:30:02.135Z,6.3
2023-02-14T11:31:41.819Z,6.34
2023-02-14T11:33:21.604Z,6.33
2023-02-14T11:35:01.345Z,6.38
2023-02-14T11:36:41.187Z,6.35
2023-02-14T11:38:20.892Z,6.36
2023-02-14T11:40:00.753Z,6.39
2023-02-14T11:41:40.455Z,6.4
2023-02-14T11:43:20.160Z,6.4
2023-02-14T11:44:59.901Z,6.43
2023-02-14T11:46:39.671Z,6.44
2023-02-14T11:48:19.428Z,6.44
2023-02-14T11:49:59.220Z,6.45
2023-02-14T11:51:39.089Z,6.48
2023-02-14T11:53:18.717Z,6.46
2023-02-14T11:54:58.593Z,6.47
2023-02-14T11:56:38.242Z,6.44
2023-02-14T11:58:17.998Z,6.49
2023-02-14T11:59:57.762Z,6.47
2023-02-14T12:01:37.652Z,6.5
2023-02-14T12:03:17.425Z,6.5
2023-02-14T12:04:57.114Z,6.52
2023-02-14T12:06:36.900Z,6.54
2023-02-14T12:08:16.583Z,6.51
2023-02-14T12:09:56.410Z,6.52
2023-02-14T12:11:36.222Z,6.55
2023-02-14T12:13:15.987Z,6.55
2023-02-14T12:14:55.712Z,6.55
2023-02-14T12:16:35.396Z,6.57
2023-02-14T12:18:15.174Z,6.6
2023-02-14T12:19:54.924Z,6.58
2023-02-14T12:21:34.820Z,6.61
2023-02-14T12:23:14.469Z,6.59
2023-02-14T12:24:54.220Z,6.61
2023-02-14T12:26:34.127Z,6.63
2023-02-14T12:28:13.777Z,6.64
2023-02-14T12:29:53.642Z,6.62
2023-02-14T12:31:33.285Z,6.63
2023-02-14T12:33:13.060Z,6.63
2023-02-14T12:34:52.876Z,6.64
2023-02-14T12:36:32.575Z,6.64
2023-02-14T12:38:12.333Z,6.65
2023-02-14T12:39:52.093Z,6.66
2023-02-14T12:41:31.875Z,6.67
2023-02-14T12:43:11.626Z,6.68
2023-02-14T12:44:51.390Z,6.71
2023-02-14T12:46:31.158Z,6.73
2023-02-14T12:48:10.904Z,6.74
2023-02-14T12:49:50.701Z,6.77
2023-02-14T12:51:30.430Z,6.77
2023-02-14T12:53:10.247Z,6.73
2023-02-14T12:54:49.968Z,6.76
2023-02-14T12:56:29.727Z,6.76
2023-02-14T12:58:09.487Z,6.77
2023-02-14T12:59:49.265Z,6.77
2023-02-14T13:01:29.050Z,6.77
2023-02-14T13:03:08.797Z,6.77
2023-02-14T13:04:48.551Z,6.78
2023-02-14T13:06:28.320Z,6.78
2023-02-14T13:08:08.096Z,6.8
2023-02-14T13:09:47.844Z,6.81
2023-02-14T13:11:27.602Z,6.8
2023-02-14T13:13:07.382Z,6.77
2023-02-14T13:14:47.150Z,6.81
2023-02-14T13:16:26.902Z,6.82
2023-02-14T13:18:06.680Z,6.83
2023-02-14T13:19:46.443Z,6.82
2023-02-14T13:21:26.189Z,6.81
2023-02-14T13:29:45.069Z,6.83
2023-02-14T13:31:24.768Z,6.82
2023-02-14T13:33:04.604Z,6.84
2023-02-14T13:34:44.296Z,6.83
2023-02-14T13:36:24.129Z,6.85
2023-02-14T13:38:03.902Z,6.85
2023-02-14T13:39:43.627Z,6.85
2023-02-14T13:41:23.342Z,6.84
2023-02-14T13:43:03.117Z,6.8
2023-02-14T13:44:42.875Z,6.83
2023-02-14T13:46:22.640Z,6.82
2023-02-14T13:48:02.399Z,6.82
2023-02-14T13:49:42.174Z,6.82
2023-02-14T13:51:21.945Z,6.81
2023-02-14T13:53:01.703Z,6.84
2023-02-14T13:54:41.469Z,6.79
2023-02-14T13:56:21.228Z,6.79
2023-02-14T13:58:00.999Z,6.78
2023-02-14T13:59:40.770Z,6.79
2023-02-14T14:01:20.512Z,6.78
2023-02-14T14:03:00.284Z,6.79
2023-02-14T14:04:40.058Z,6.78
2023-02-14T14:06:19.807Z,6.76
2023-02-14T14:07:59.568Z,6.79
2023-02-14T14:09:39.342Z,6.78
2023-02-14T14:12:58.870Z,6.77
2023-02-14T14:14:38.630Z,6.77
2023-02-14T14:16:18.385Z,6.76
2023-02-14T14:17:58.155Z,6.76
2023-02-14T14:19:37.921Z,6.75
2023-02-14T14:21:17.684Z,6.76
2023-02-14T14:22:57.449Z,6.75
2023-02-14T14:24:37.217Z,6.76
2023-02-14T14:26:17.005Z,6.73
2023-02-14T14:27:56.734Z,6.74
2023-02-14T14:29:36.495Z,6.74
2023-02-14T14:31:16.264Z,6.72
2023-02-14T14:32:56.040Z,6.72
2023-02-14T14:34:35.806Z,6.73
2023-02-14T14:36:15.566Z,6.72
2023-02-14T14:37:55.328Z,6.68
2023-02-14T14:39:35.104Z,6.68
2023-02-14T14:41:14.845Z,6.65
2023-02-14T14:42:54.625Z,6.65
2023-02-14T14:44:34.376Z,6.65
2023-02-14T14:46:14.134Z,6.65
2023-02-14T14:47:53.923Z,6.62
2023-02-14T14:49:33.678Z,6.63
2023-02-14T14:51:13.451Z,6.64
2023-02-14T14:52:53.248Z,6.62
2023-02-14T14:54:32.956Z,6.62
2023-02-14T14:56:12.743Z,6.64
2023-02-14T14:57:52.499Z,6.62
2023-02-14T14:59:32.261Z,6.61
2023-02-14T15:01:12.032Z,6.6
2023-02-14T15:02:51.803Z,6.59
2023-02-14T15:04:31.564Z,6.57
2023-02-14T15:06:11.320Z,6.57
2023-02-14T15:07:51.162Z,6.57
2023-02-14T15:09:30.852Z,6.56
2023-02-14T15:11:10.605Z,6.55
2023-02-14T15:12:50.375Z,6.53
2023-02-14T15:14:30.139Z,6.52
2023-02-14T15:16:09.910Z,6.51
2023-02-14T15:17:49.668Z,6.49
2023-02-14T15:19:29.432Z,6.48
2023-02-14T15:21:09.207Z,6.47
2023-02-14T15:22:48.947Z,6.44
2023-02-14T15:24:28.701Z,6.46
2023-02-14T15:26:08.491Z,6.45
2023-02-14T15:27:48.250Z,6.44
2023-02-14T15:29:28.016Z,6.38
2023-02-14T15:31:07.788Z,6.39
2023-02-14T15:32:47.542Z,6.4
2023-02-14T15:34:27.308Z,6.39
2023-02-14T15:36:07.067Z,6.38
2023-02-14T15:37:46.835Z,6.35
2023-02-14T15:39:26.606Z,6.34
2023-02-14T15:41:06.372Z,6.32
2023-02-14T15:42:46.125Z,6.34
2023-02-14T15:44:25.882Z,6.32
2023-02-14T15:46:05.658Z,6.3
2023-02-14T15:47:45.424Z,6.28
2023-02-14T15:49:25.175Z,6.27
2023-02-14T15:51:04.962Z,6.28
2023-02-14T15:52:44.711Z,6.26
2023-02-14T15:54:24.485Z,6.21
2023-02-14T15:56:04.270Z,6.21
2023-02-14T15:57:44.013Z,6.18
2023-02-14T15:59:23.749Z,6.17
2023-02-14T16:01:03.537Z,6.15
2023-02-14T16:02:43.285Z,6.15
2023-02-14T16:04:23.057Z,6.13
2023-02-14T16:06:02.825Z,6.12
2023-02-14T16:07:42.576Z,6.1
2023-02-14T16:09:22.334Z,6.08
2023-02-14T16:11:02.107Z,6.1
2023-02-14T16:12:41.872Z,6.08
2023-02-14T16:14:21.632Z,6.06
2023-02-14T16:16:01.378Z,6.03
2023-02-14T16:17:41.188Z,6.02
2023-02-14T16:19:20.970Z,6.01
2023-02-14T16:21:00.676Z,6.01
2023-02-14T16:22:40.446Z,6
2023-02-14T16:24:20.217Z,5.96
2023-02-14T16:25:59.968Z,5.94
2023-02-14T16:27:39.730Z,5.94
2023-02-14T16:29:19.496Z,5.93
2023-02-14T16:30:59.254Z,5.91
2023-02-14T16:32:39.039Z,5.88
2023-02-14T16:34:18.796Z,5.88
2023-02-14T16:35:58.569Z,5.88
2023-02-14T16:37:38.451Z,5.85
2023-02-14T16:39:18.098Z,5.84
2023-02-14T16:40:57.852Z,5.83
2023-02-14T16:42:37.816Z,5.79
2023-02-14T16:44:17.381Z,5.79
2023-02-14T16:45:57.129Z,5.78
2023-02-14T16:47:36.909Z,5.77
2023-02-14T16:49:16.665Z,5.76
2023-02-14T16:50:56.427Z,5.74
2023-02-14T16:52:36.193Z,5.75
2023-02-14T16:54:15.961Z,5.73
2023-02-14T16:55:55.731Z,5.72
2023-02-14T16:57:35.484Z,5.69
2023-02-14T16:59:15.238Z,5.69
2023-02-14T17:00:55.009Z,5.69
2023-02-14T17:02:34.784Z,5.67
2023-02-14T17:04:14.541Z,5.65
2023-02-14T17:05:54.319Z,5.64
2023-02-14T17:07:34.072Z,5.64
2023-02-14T17:09:13.824Z,5.62
2023-02-14T17:10:53.610Z,5.62
2023-02-14T17:12:33.363Z,5.61
2023-02-14T17:14:13.122Z,5.61
2023-02-14T17:15:52.948Z,5.6
2023-02-14T17:17:32.653Z,5.58
2023-02-14T17:19:12.442Z,5.57
2023-02-14T17:20:52.181Z,5.58
2023-02-14T17:22:31.947Z,5.57
2023-02-14T17:24:11.715Z,5.55
2023-02-14T17:25:51.486Z,5.54
2023-02-14T17:27:31.243Z,5.54
2023-02-14T17:30:50.760Z,5.51
2023-02-14T17:32:30.537Z,5.5
2023-02-14T17:34:10.301Z,5.48
2023-02-14T17:35:50.060Z,5.48
2023-02-14T17:37:29.812Z,5.47
2023-02-14T17:39:09.587Z,5.46
2023-02-14T17:40:49.350Z,5.45
2023-02-14T17:42:29.120Z,5.44
2023-02-14T17:44:08.871Z,5.44
2023-02-14T17:45:48.637Z,5.42
2023-02-14T17:47:28.403Z,5.43
2023-02-14T17:49:08.183Z,5.38
2023-02-14T17:50:47.925Z,5.41
2023-02-14T17:52:27.693Z,5.41
2023-02-14T17:54:07.467Z,5.38
2023-02-14T17:55:47.220Z,5.38
2023-02-14T17:57:26.999Z,5.38
2023-02-14T17:59:06.751Z,5.37
2023-02-14T18:00:46.507Z,5.36
2023-02-14T18:02:26.292Z,5.36
2023-02-14T18:04:06.051Z,5.34
2023-02-14T18:05:45.816Z,5.33
2023-02-14T18:07:25.582Z,5.33
2023-02-14T18:09:05.352Z,5.33
2023-02-14T18:10:45.111Z,5.34
2023-02-14T18:12:24.866Z,5.33
2023-02-14T18:14:04.615Z,5.32
2023-02-14T18:15:44.404Z,5.32
2023-02-14T18:17:24.162Z,5.28
2023-02-14T18:19:03.954Z,5.29
2023-02-14T18:20:43.689Z,5.28
2023-02-14T18:22:23.458Z,5.28
2023-02-14T18:24:03.210Z,5.25
2023-02-14T18:25:42.968Z,5.26
2023-02-14T18:27:22.742Z,5.25
2023-02-14T18:29:02.503Z,5.26
2023-02-14T18:30:42.254Z,5.24
2023-02-14T18:32:22.038Z,5.23
2023-02-14T18:34:01.796Z,5.23
2023-02-14T18:35:41.568Z,5.23
2023-02-14T18:37:21.307Z,5.22
2023-02-14T18:39:01.079Z,5.18
2023-02-14T18:40:40.845Z,5.19
2023-02-14T18:42:20.602Z,5.19
2023-02-14T18:44:00.379Z,5.17
2023-02-14T18:45:40.143Z,5.17
2023-02-14T18:47:19.891Z,5.17
2023-02-14T18:48:59.668Z,5.17
2023-02-14T18:50:39.429Z,5.16
2023-02-14T18:52:19.187Z,5.13
2023-02-14T18:53:58.975Z,5.13
2023-02-14T18:55:38.760Z,5.11
2023-02-14T18:57:18.495Z,5.15
2023-02-14T18:58:58.250Z,5.14
2023-02-14T19:00:38.065Z,5.12
2023-02-14T19:02:17.780Z,5.13
2023-02-14T19:03:57.550Z,5.1
2023-02-14T19:05:37.324Z,5.13
2023-02-14T19:07:17.087Z,5.1
2023-02-14T19:08:56.901Z,5.1
2023-02-14T19:10:36.626Z,5.07
2023-02-14T19:12:16.391Z,5.08
2023-02-14T19:13:56.155Z,5.08
2023-02-14T19:15:35.921Z,5.08
2023-02-14T19:17:15.685Z,5.07
2023-02-14T19:18:55.465Z,5.06
2023-02-14T19:20:35.205Z,5.05
2023-02-14T19:22:14.953Z,5.05
2023-02-14T19:23:54.759Z,5.03
2023-02-14T19:25:34.473Z,5.05
2023-02-14T19:27:14.287Z,5.03
2023-02-14T19:28:54.049Z,5.02
2023-02-14T19:30:33.757Z,5.03
2023-02-14T19:32:13.522Z,5.01
2023-02-14T19:33:53.455Z,4.98
2023-02-14T19:35:33.162Z,4.96
2023-02-14T19:37:12.984Z,4.96
2023-02-14T19:38:52.593Z,4.96
2023-02-14T19:40:32.348Z,4.96
2023-02-14T19:42:12.141Z,4.98
2023-02-14T19:43:51.893Z,4.94
2023-02-14T19:45:31.729Z,4.94
2023-02-14T19:47:11.487Z,4.94
2023-02-14T19:48:51.353Z,4.94
2023-02-14T19:50:30.959Z,4.92
2023-02-14T19:52:10.701Z,4.94
2023-02-14T19:53:50.519Z,4.92
2023-02-14T19:55:30.228Z,4.92
2023-02-14T19:57:10.211Z,4.92
2023-02-14T19:58:49.818Z,4.91
2023-02-14T20:00:29.511Z,4.91
2023-02-14T20:02:09.288Z,4.91
2023-02-14T20:03:49.082Z,4.89
2023-02-14T20:05:28.941Z,4.89
2023-02-14T20:07:08.605Z,4.86
2023-02-14T20:08:48.342Z,4.85
2023-02-14T20:10:28.086Z,4.86
2023-02-14T20:12:07.857Z,4.83
2023-02-14T20:13:47.656Z,4.85
2023-02-14T20:15:27.431Z,4.83
2023-02-14T20:17:07.194Z,4.85
2023-02-14T20:18:46.907Z,4.82
2023-02-14T20:20:26.777Z,4.82
2023-02-14T20:22:06.448Z,4.84
2023-02-14T20:23:46.237Z,4.83
2023-02-14T20:25:25.996Z,4.81
2023-02-14T20:27:05.745Z,4.82
2023-02-14T20:28:45.502Z,4.8
2023-02-14T20:30:25.382Z,4.81
2023-02-14T20:32:05.225Z,4.79
2023-02-14T20:33:44.827Z,4.79
2023-02-14T20:37:04.426Z,4.76
2023-02-14T20:38:44.090Z,4.77
2023-02-14T20:40:23.965Z,4.76
2023-02-14T20:42:03.694Z,4.76
2023-02-14T20:43:43.377Z,4.71
2023-02-14T20:45:23.192Z,4.73
2023-02-14T20:47:02.949Z,4.73
2023-02-14T20:48:42.668Z,4.71
2023-02-14T20:50:22.432Z,4.69
2023-02-14T20:52:02.268Z,4.69
2023-02-14T20:53:41.951Z,4.69
2023-02-14T20:55:21.796Z,4.66
2023-02-14T20:57:01.538Z,4.67
2023-02-14T20:58:41.245Z,4.67
2023-02-14T21:00:21.068Z,4.66
2023-02-14T21:02:00.862Z,4.66
2023-02-14T21:03:40.559Z,4.66
2023-02-14T21:05:20.317Z,4.62
2023-02-14T21:07:00.140Z,4.64
2023-02-14T21:08:39.853Z,4.65
2023-02-14T21:10:19.606Z,4.65
2023-02-14T21:11:59.410Z,4.64
2023-02-14T21:13:39.118Z,4.59
2023-02-14T21:15:18.895Z,4.61
2023-02-14T21:16:58.641Z,4.6
2023-02-14T21:18:38.534Z,4.6
2023-02-14T21:20:18.251Z,4.59
2023-02-14T21:21:58.086Z,4.58
2023-02-14T21:23:37.791Z,4.55
2023-02-14T21:25:17.463Z,4.56
2023-02-14T21:26:57.227Z,4.55
2023-02-14T21:28:37.036Z,4.55
2023-02-14T21:30:16.902Z,4.54
2023-02-14T21:31:56.654Z,4.53
2023-02-14T21:33:36.306Z,4.53
2023-02-14T21:35:16.206Z,4.51
2023-02-14T21:36:55.903Z,4.51
2023-02-14T21:38:35.645Z,4.51
2023-02-14T21:40:15.347Z,4.48
2023-02-14T21:41:55.105Z,4.51
2023-02-14T21:43:34.939Z,4.5
2023-02-14T21:45:14.645Z,4.48
2023-02-14T21:46:54.408Z,4.46
2023-02-14T21:48:34.214Z,4.48
2023-02-14T21:50:14.075Z,4.46
2023-02-14T21:51:53.692Z,4.46
2023-02-14T21:53:33.466Z,4.46
2023-02-14T21:55:13.366Z,4.46
2023-02-14T21:56:52.971Z,4.46
2023-02-14T21:58:32.767Z,4.44
2023-02-14T22:00:12.514Z,4.42
2023-02-14T22:01:52.272Z,4.42
2023-02-14T22:03:32.110Z,4.42
2023-02-14T22:05:11.938Z,4.41
2023-02-14T22:06:51.632Z,4.39
2023-02-14T22:08:31.338Z,4.35
2023-02-14T22:10:11.203Z,4.39
2023-02-14T22:11:50.871Z,4.38
2023-02-14T22:13:30.690Z,4.37
2023-02-14T22:15:10.455Z,4.37
2023-02-14T22:16:50.146Z,4.34
2023-02-14T22:18:29.896Z,4.33
2023-02-14T22:20:09.682Z,4.3
2023-02-14T22:21:49.522Z,4.29
2023-02-14T22:23:29.230Z,4.25
2023-02-14T22:25:09.076Z,4.26
2023-02-14T22:26:48.742Z,4.23
2023-02-14T22:28:28.497Z,4.23
2023-02-14T22:30:08.361Z,4.21
2023-02-14T22:31:48.014Z,4.19
2023-02-14T22:33:27.783Z,4.19
2023-02-14T22:35:07.552Z,4.19